createdAt,value
2023-02-23T00:01:30.061Z,38.10
2023-02-23T00:03:58.841Z,38.20
2023-02-23T00:06:29.378Z,38.20
2023-02-23T00:08:58.291Z,38.10
2023-02-23T00:11:27.234Z,38.10
2023-02-23T00:13:56.920Z,38.70
2023-02-23T00:16:26.270Z,38.10
2023-02-23T00:19:00.530Z,38.10
2023-02-23T00:21:35.582Z,38.10
2023-02-23T00:24:08.450Z,38.10
2023-02-23T00:26:37.742Z,38.10
2023-02-23T00:29:07.583Z,38.10
2023-02-23T00:31:34.866Z,38.10
2023-02-23T00:34:04.540Z,38.10
2023-02-23T00:36:34.044Z,38.10
2023-02-23T00:39:21.516Z,38.00
2023-02-23T00:41:50.086Z,38.10
2023-02-23T00:44:17.323Z,38.10
2023-02-23T00:46:49.273Z,38.00
2023-02-23T00:49:16.761Z,38.00
2023-02-23T00:51:44.312Z,38.10
2023-02-23T00:54:14.347Z,38.00
2023-02-23T00:56:42.095Z,38.60
2023-02-23T00:59:10.103Z,38.10
2023-02-23T01:01:38.683Z,38.10
2023-02-23T01:04:07.356Z,38.10
2023-02-23T01:06:37.619Z,38.00
2023-02-23T01:09:09.485Z,38.00
2023-02-23T01:11:36.619Z,38.00
2023-02-23T01:14:03.753Z,38.00
2023-02-23T01:16:33.283Z,38.00
2023-02-23T01:19:04.168Z,38.00
2023-02-23T01:21:36.629Z,37.90
2023-02-23T01:24:04.612Z,37.90
2023-02-23T01:26:36.853Z,37.90
2023-02-23T01:29:08.916Z,37.90
2023-02-23T01:31:38.271Z,37.90
2023-02-23T01:34:06.221Z,37.90
2023-02-23T01:36:42.260Z,37.90
2023-02-23T01:39:13.907Z,37.90
2023-02-23T01:41:42.613Z,37.90
2023-02-23T01:44:50.558Z,37.90
2023-02-23T01:47:20.539Z,37.80
2023-02-23T01:49:48.597Z,37.80
2023-02-23T01:52:17.556Z,37.80
2023-02-23T01:54:51.194Z,37.80
2023-02-23T01:57:22.363Z,37.80
2023-02-23T01:59:50.596Z,37.80
2023-02-23T02:02:32.937Z,37.80
2023-02-23T02:05:02.133Z,37.80
2023-02-23T02:07:31.128Z,37.70
2023-02-23T02:10:19.454Z,37.80
2023-02-23T02:12:52.181Z,37.70
2023-02-23T02:15:22.668Z,37.80
2023-02-23T02:18:18.851Z,37.70
2023-02-23T02:21:16.833Z,37.70
2023-02-23T02:24:17.843Z,37.70
2023-02-23T02:27:21.446Z,37.70
2023-02-23T02:30:14.050Z,37.70
2023-02-23T02:33:11.183Z,37.70
2023-02-23T02:36:02.111Z,37.70
2023-02-23T02:38:58.957Z,37.70
2023-02-23T02:41:57.274Z,38.30
2023-02-23T02:44:38.148Z,37.70
2023-02-23T02:47:12.624Z,37.70
2023-02-23T02:50:00.784Z,37.70
2023-02-23T02:52:40.407Z,37.70
2023-02-23T02:55:23.803Z,37.70
2023-02-23T02:57:53.977Z,37.70
2023-02-23T03:00:47.585Z,37.80
2023-02-23T03:03:59.093Z,37.80
2023-02-23T03:06:53.995Z,37.70
2023-02-23T03:10:03.898Z,37.70
2023-02-23T03:13:22.194Z,37.70
2023-02-23T03:16:24.011Z,37.60
2023-02-23T03:19:38.686Z,37.60
2023-02-23T03:22:44.202Z,37.60
2023-02-23T03:25:39.961Z,37.60
2023-02-23T03:28:36.504Z,37.60
2023-02-23T03:31:43.452Z,37.50
2023-02-23T03:34:37.695Z,37.50
2023-02-23T03:37:45.210Z,37.50
2023-02-23T03:40:43.599Z,37.50
2023-02-23T03:43:36.651Z,37.50
2023-02-23T03:46:26.184Z,37.50
2023-02-23T03:49:14.655Z,37.50
2023-02-23T03:52:07.363Z,37.50
2023-02-23T03:55:00.987Z,37.40
2023-02-23T03:57:52.242Z,37.40
2023-02-23T04:00:47.554Z,37.40
2023-02-23T04:03:37.997Z,37.40
2023-02-23T04:06:26.778Z,37.40
2023-02-23T04:09:16.378Z,37.40
2023-02-23T04:12:14.144Z,37.40
2023-02-23T04:15:10.728Z,37.40
2023-02-23T04:17:38.117Z,37.40
2023-02-23T04:20:07.182Z,37.40
2023-02-23T04:22:35.657Z,37.40
2023-02-23T04:25:06.135Z,37.40
2023-02-23T04:27:33.177Z,37.40
2023-02-23T04:30:00.317Z,37.40
2023-02-23T04:32:27.554Z,37.40
2023-02-23T04:34:55.125Z,37.40
2023-02-23T04:37:22.223Z,37.40
2023-02-23T04:39:50.446Z,37.40
2023-02-23T04:42:18.550Z,37.40
2023-02-23T04:44:46.278Z,37.40
2023-02-23T04:47:16.268Z,37.30
2023-02-23T04:49:44.180Z,37.30
2023-02-23T04:52:11.267Z,37.30
2023-02-23T04:54:39.497Z,37.30
2023-02-23T04:57:07.170Z,37.30
2023-02-23T04:59:34.734Z,37.30
2023-02-23T05:02:02.271Z,37.30
2023-02-23T05:04:29.469Z,37.90
2023-02-23T05:06:56.681Z,37.30
2023-02-23T05:09:23.853Z,37.30
2023-02-23T05:11:51.046Z,37.30
2023-02-23T05:14:18.130Z,37.30
2023-02-23T05:16:45.327Z,37.20
2023-02-23T05:19:12.435Z,37.20
2023-02-23T05:21:39.512Z,37.20
2023-02-23T05:24:06.887Z,37.20
2023-02-23T05:26:34.410Z,37.20
2023-02-23T05:29:02.011Z,37.10
2023-02-23T05:31:29.550Z,37.70
2023-02-23T05:33:56.783Z,37.10
2023-02-23T05:36:24.332Z,37.10
2023-02-23T05:38:51.658Z,36.90
2023-02-23T05:41:22.528Z,36.80
2023-02-23T05:43:54.158Z,36.70
2023-02-23T05:46:24.647Z,36.80
2023-02-23T05:48:57.308Z,36.80
2023-02-23T05:51:24.338Z,36.80
2023-02-23T05:53:51.670Z,36.80
2023-02-23T05:56:20.994Z,36.80
2023-02-23T05:58:49.543Z,36.60
2023-02-23T06:01:18.119Z,36.60
2023-02-23T06:03:46.585Z,36.50
2023-02-23T06:06:14.174Z,36.40
2023-02-23T06:08:42.148Z,36.50
2023-02-23T06:11:09.818Z,36.40
2023-02-23T06:13:36.921Z,36.40
2023-02-23T06:16:06.255Z,36.40
2023-02-23T06:18:33.653Z,36.40
2023-02-23T06:21:02.130Z,36.40
2023-02-23T06:23:29.977Z,36.40
2023-02-23T06:25:58.210Z,36.40
2023-02-23T06:28:25.712Z,36.30
2023-02-23T06:30:53.592Z,36.30
2023-02-23T06:33:21.350Z,36.20
2023-02-23T06:35:48.686Z,36.20
2023-02-23T06:38:16.055Z,36.10
2023-02-23T06:40:43.497Z,36.00
2023-02-23T06:43:11.841Z,36.00
2023-02-23T06:45:39.350Z,36.30
2023-02-23T06:48:07.007Z,36.60
2023-02-23T06:50:34.128Z,37.20
2023-02-23T06:53:01.252Z,36.60
2023-02-23T06:55:28.320Z,36.60
2023-02-23T06:57:55.464Z,36.60
2023-02-23T07:00:22.940Z,36.40
2023-02-23T07:02:50.260Z,36.10
2023-02-23T07:05:17.635Z,36.10
2023-02-23T07:07:45.688Z,35.90
2023-02-23T07:10:12.927Z,36.00
2023-02-23T07:12:40.287Z,35.90
2023-02-23T07:15:08.230Z,35.90
2023-02-23T07:17:36.186Z,35.80
2023-02-23T07:20:04.182Z,35.70
2023-02-23T07:22:31.280Z,35.70
2023-02-23T07:24:58.391Z,35.70
2023-02-23T07:27:25.662Z,35.60
2023-02-23T07:29:53.705Z,35.60
2023-02-23T07:32:20.934Z,35.60
2023-02-23T07:34:48.234Z,35.50
2023-02-23T07:37:15.775Z,36.00
2023-02-23T07:39:42.966Z,35.40
2023-02-23T07:42:10.683Z,35.30
2023-02-23T07:44:38.375Z,35.30
2023-02-23T07:47:06.403Z,35.30
2023-02-23T07:49:34.531Z,35.50
2023-02-23T07:52:01.649Z,35.70
2023-02-23T07:54:29.218Z,35.90
2023-02-23T07:56:56.476Z,36.40
2023-02-23T07:59:23.720Z,35.90
2023-02-23T08:01:51.897Z,36.00
2023-02-23T08:04:19.739Z,35.90
2023-02-23T08:06:47.553Z,35.90
2023-02-23T08:09:14.665Z,35.80
2023-02-23T08:11:42.049Z,35.90
2023-02-23T08:14:10.783Z,35.90
2023-02-23T08:16:37.903Z,35.90
2023-02-23T08:19:06.102Z,35.90
2023-02-23T08:21:33.309Z,35.90
2023-02-23T08:24:00.634Z,35.80
2023-02-23T08:26:27.820Z,35.70
2023-02-23T08:28:55.746Z,36.20
2023-02-23T08:31:25.290Z,35.70
2023-02-23T08:33:53.451Z,35.60
2023-02-23T08:36:21.059Z,35.60
2023-02-23T08:38:48.432Z,35.60
2023-02-23T08:41:15.896Z,35.50
2023-02-23T08:43:44.265Z,35.40
2023-02-23T08:46:11.807Z,35.40
2023-02-23T08:48:40.712Z,35.40
2023-02-23T08:51:08.915Z,35.40
2023-02-23T08:53:36.649Z,35.40
2023-02-23T08:56:06.745Z,35.40
2023-02-23T08:58:35.769Z,35.30
2023-02-23T09:01:03.710Z,35.40
2023-02-23T09:03:31.859Z,35.20
2023-02-23T09:06:06.088Z,35.00
2023-02-23T09:08:33.193Z,34.90
2023-02-23T09:11:00.586Z,34.60
2023-02-23T09:13:27.705Z,34.60
2023-02-23T09:15:55.181Z,34.50
2023-02-23T09:18:24.205Z,34.50
2023-02-23T09:20:51.312Z,34.70
2023-02-23T09:23:18.416Z,34.70
2023-02-23T09:25:46.340Z,34.60
2023-02-23T09:28:15.856Z,34.60
2023-02-23T09:30:44.282Z,34.50
2023-02-23T09:33:12.640Z,34.50
2023-02-23T09:35:40.850Z,34.40
2023-02-23T09:38:08.757Z,34.30
2023-02-23T09:40:49.979Z,34.20
2023-02-23T09:43:30.814Z,34.20
2023-02-23T09:46:38.540Z,34.20
2023-02-23T09:49:13.993Z,34.50
2023-02-23T09:51:46.485Z,34.60
2023-02-23T09:54:16.709Z,34.60
2023-02-23T09:56:51.397Z,34.70
2023-02-23T09:59:22.132Z,34.50
2023-02-23T10:02:06.059Z,34.30
2023-02-23T10:04:47.414Z,34.50
2023-02-23T10:07:38.985Z,34.60
2023-02-23T10:10:41.259Z,34.60
2023-02-23T10:13:30.077Z,34.70
2023-02-23T10:16:21.516Z,34.50
2023-02-23T10:19:06.629Z,34.50
2023-02-23T10:21:39.640Z,34.60
2023-02-23T10:24:18.466Z,34.30
2023-02-23T10:26:54.569Z,34.50
2023-02-23T10:29:30.476Z,34.40
2023-02-23T10:32:07.296Z,35.00
2023-02-23T10:34:35.490Z,34.30
2023-02-23T10:37:06.086Z,34.30
2023-02-23T10:39:34.687Z,34.20
2023-02-23T10:42:06.083Z,34.30
2023-02-23T10:44:33.390Z,34.30
2023-02-23T10:47:06.331Z,34.20
2023-02-23T10:49:43.330Z,34.30
2023-02-23T10:52:18.638Z,34.20
2023-02-23T10:54:48.176Z,34.20
2023-02-23T10:57:28.922Z,34.20
2023-02-23T11:00:27.895Z,34.10
2023-02-23T11:02:58.507Z,34.10
2023-02-23T11:05:47.142Z,34.10
2023-02-23T11:08:25.195Z,33.90
2023-02-23T11:10:58.859Z,33.80
2023-02-23T11:13:30.076Z,33.70
2023-02-23T11:16:15.636Z,33.50
2023-02-23T11:18:56.590Z,33.60
2023-02-23T11:21:27.711Z,33.60
2023-02-23T11:23:59.097Z,33.60
2023-02-23T11:26:33.156Z,33.60
2023-02-23T11:29:06.034Z,33.50
2023-02-23T11:31:35.293Z,33.40
2023-02-23T11:34:05.130Z,33.40
2023-02-23T11:36:35.425Z,33.40
2023-02-23T11:39:20.085Z,33.40
2023-02-23T11:41:47.239Z,33.20
2023-02-23T11:44:23.479Z,33.30
2023-02-23T11:46:51.805Z,33.40
2023-02-23T11:49:26.338Z,33.30
2023-02-23T11:51:54.912Z,33.30
2023-02-23T11:54:30.904Z,33.40
2023-02-23T11:56:58.952Z,33.20
2023-02-23T11:59:32.255Z,33.30
2023-02-23T12:02:24.319Z,33.40
2023-02-23T12:05:10.196Z,33.40
2023-02-23T12:08:15.922Z,33.30
2023-02-23T12:10:47.659Z,33.20
2023-02-23T12:13:47.697Z,33.10
2023-02-23T12:16:27.117Z,33.10
2023-02-23T12:19:06.822Z,33.00
2023-02-23T12:21:51.242Z,32.90
2023-02-23T12:24:54.246Z,33.00
2023-02-23T12:27:38.229Z,33.00
2023-02-23T12:30:26.215Z,32.90
2023-02-23T12:33:06.891Z,32.90
2023-02-23T12:35:52.956Z,32.80
2023-02-23T12:38:46.690Z,32.80
2023-02-23T12:41:18.781Z,32.80
2023-02-23T12:43:52.590Z,32.80
2023-02-23T12:46:26.695Z,32.80
2023-02-23T12:49:22.320Z,32.80
2023-02-23T12:52:12.898Z,32.90
2023-02-23T12:54:42.905Z,32.80
2023-02-23T12:57:38.824Z,32.90
2023-02-23T13:00:39.489Z,32.90
2023-02-23T13:03:43.339Z,32.90
2023-02-23T13:06:22.767Z,33.10
2023-02-23T13:09:21.574Z,33.00
2023-02-23T13:12:26.668Z,32.90
2023-02-23T13:15:18.979Z,33.00
2023-02-23T13:17:58.400Z,33.10
2023-02-23T13:20:55.782Z,33.10
2023-02-23T13:23:50.329Z,33.00
2023-02-23T13:26:28.834Z,33.00
2023-02-23T13:29:13.260Z,33.00
2023-02-23T13:31:42.265Z,33.40
2023-02-23T13:34:21.712Z,33.40
2023-02-23T13:36:50.718Z,33.30
2023-02-23T13:39:48.731Z,33.10
2023-02-23T13:42:34.442Z,33.20
2023-02-23T13:45:25.651Z,33.10
2023-02-23T13:48:19.561Z,33.00
2023-02-23T13:51:30.231Z,33.00
2023-02-23T13:54:23.150Z,33.00
2023-02-23T13:57:01.446Z,33.00
2023-02-23T13:59:33.484Z,33.00
2023-02-23T14:02:06.597Z,33.00
2023-02-23T14:04:42.636Z,33.10
2023-02-23T14:07:24.439Z,33.10
2023-02-23T14:09:57.272Z,33.00
2023-02-23T14:12:35.897Z,33.10
2023-02-23T14:15:29.691Z,33.10
2023-02-23T14:18:00.071Z,33.10
2023-02-23T14:21:00.627Z,33.30
2023-02-23T14:23:37.126Z,33.70
2023-02-23T14:26:18.637Z,33.70
2023-02-23T14:29:24.465Z,33.70
2023-02-23T14:32:15.929Z,33.80
2023-02-23T14:34:57.397Z,33.80
2023-02-23T14:37:41.039Z,33.80
2023-02-23T14:40:19.535Z,33.80
2023-02-23T14:42:57.129Z,33.80
2023-02-23T14:45:30.140Z,33.70
2023-02-23T14:48:07.807Z,33.60
2023-02-23T14:50:37.807Z,33.80
2023-02-23T14:53:11.121Z,33.80
2023-02-23T14:55:43.476Z,33.80
2023-02-23T14:58:31.391Z,33.80
2023-02-23T15:00:59.454Z,33.80
2023-02-23T15:03:26.639Z,33.70
2023-02-23T15:05:57.775Z,33.80
2023-02-23T15:08:27.671Z,33.70
2023-02-23T15:11:04.814Z,33.60
2023-02-23T15:13:40.220Z,33.80
2023-02-23T15:16:15.271Z,33.90
2023-02-23T15:18:46.368Z,33.90
2023-02-23T15:21:20.049Z,33.90
2023-02-23T15:23:50.557Z,34.10
2023-02-23T15:26:39.064Z,34.10
2023-02-23T15:29:16.558Z,34.30
2023-02-23T15:31:53.248Z,34.60
2023-02-23T15:34:23.526Z,34.50
2023-02-23T15:36:52.944Z,34.60
2023-02-23T15:39:38.794Z,34.80
2023-02-23T15:42:10.593Z,34.80
2023-02-23T15:44:44.412Z,34.90
2023-02-23T15:47:22.163Z,35.00
2023-02-23T15:49:50.498Z,35.20
2023-02-23T15:52:22.664Z,35.20
2023-02-23T15:54:57.510Z,35.30
2023-02-23T15:57:31.785Z,35.40
2023-02-23T16:00:01.929Z,35.50
2023-02-23T16:02:29.906Z,35.70
2023-02-23T16:04:57.803Z,35.90
2023-02-23T16:07:27.153Z,36.00
2023-02-23T16:10:16.098Z,36.10
2023-02-23T16:12:45.093Z,36.00
2023-02-23T16:15:26.513Z,35.90
2023-02-23T16:17:58.242Z,36.10
2023-02-23T16:20:38.327Z,36.20
2023-02-23T16:23:07.213Z,36.20
2023-02-23T16:25:35.227Z,36.20
2023-02-23T16:28:08.604Z,36.30
2023-02-23T16:30:57.348Z,36.30
2023-02-23T16:33:44.897Z,36.40
2023-02-23T16:36:22.062Z,36.40
2023-02-23T16:39:02.654Z,36.40
2023-02-23T16:41:32.170Z,36.50
2023-02-23T16:44:04.446Z,36.60
2023-02-23T16:46:39.326Z,36.80
2023-02-23T16:49:10.340Z,36.90
2023-02-23T16:51:37.931Z,37.00
2023-02-23T16:54:05.333Z,37.20
2023-02-23T16:56:34.591Z,37.30
2023-02-23T16:59:03.183Z,37.40
2023-02-23T17:01:30.568Z,37.60
2023-02-23T17:03:59.213Z,37.80
2023-02-23T17:06:26.451Z,37.90
2023-02-23T17:11:42.814Z,38.20
2023-02-23T17:14:20.277Z,38.40
2023-02-23T17:16:47.364Z,38.60
2023-02-23T17:19:16.074Z,38.70
2023-02-23T17:21:43.158Z,39.00
2023-02-23T17:24:10.202Z,39.10
2023-02-23T17:26:37.393Z,39.30
2023-02-23T17:29:04.466Z,39.40
2023-02-23T17:31:32.293Z,39.50
2023-02-23T17:33:59.525Z,39.60
2023-02-23T17:36:27.722Z,39.80
2023-02-23T17:38:58.974Z,40.00
2023-02-23T17:41:27.349Z,40.20
2023-02-23T17:43:54.914Z,40.40
2023-02-23T17:46:24.162Z,40.50
2023-02-23T17:48:52.146Z,40.60
2023-02-23T17:51:21.703Z,40.60
2023-02-23T17:53:49.002Z,40.70
2023-02-23T17:56:18.017Z,40.70
2023-02-23T17:58:45.919Z,40.80
2023-02-23T18:01:13.395Z,40.90
2023-02-23T18:03:40.748Z,41.30
2023-02-23T18:06:11.003Z,41.40
2023-02-23T18:08:39.814Z,41.50
2023-02-23T18:11:07.218Z,41.70
2023-02-23T18:13:34.746Z,42.00
2023-02-23T18:16:08.286Z,42.50
2023-02-23T18:18:40.031Z,43.10
2023-02-23T18:21:13.158Z,43.50
2023-02-23T18:23:40.560Z,43.70
2023-02-23T18:26:10.788Z,43.50
2023-02-23T18:28:38.777Z,43.20
2023-02-23T18:31:06.191Z,42.80
2023-02-23T18:33:36.058Z,42.30
2023-02-23T18:36:04.284Z,41.90
2023-02-23T18:38:31.537Z,41.50
2023-02-23T18:40:58.864Z,41.10
2023-02-23T18:43:25.916Z,41.10
2023-02-23T18:45:53.003Z,40.70
2023-02-23T18:48:20.625Z,40.40
2023-02-23T18:50:47.824Z,40.60
2023-02-23T18:53:14.874Z,40.20
2023-02-23T18:55:44.667Z,40.00
2023-02-23T18:58:11.755Z,39.90
2023-02-23T19:00:44.170Z,39.90
2023-02-23T19:03:12.897Z,39.70
2023-02-23T19:05:53.040Z,39.70
2023-02-23T19:08:21.349Z,39.50
2023-02-23T19:10:49.841Z,39.40
2023-02-23T19:13:22.088Z,39.40
2023-02-23T19:15:50.110Z,39.30
2023-02-23T19:18:17.235Z,39.30
2023-02-23T19:20:44.348Z,39.30
2023-02-23T19:23:13.353Z,39.20
2023-02-23T19:25:40.490Z,39.10
2023-02-23T19:28:09.465Z,39.10
2023-02-23T19:30:36.540Z,39.00
2023-02-23T19:33:04.503Z,38.90
2023-02-23T19:35:31.617Z,38.80
2023-02-23T19:37:59.065Z,39.30
2023-02-23T19:40:29.355Z,38.70
2023-02-23T19:42:56.640Z,38.70
2023-02-23T19:45:26.016Z,38.60
2023-02-23T19:47:53.938Z,38.60
2023-02-23T19:50:21.324Z,38.60
2023-02-23T19:52:50.652Z,38.60
2023-02-23T19:55:17.873Z,38.50
2023-02-23T19:57:45.090Z,38.50
2023-02-23T20:00:13.383Z,38.50
2023-02-23T20:02:44.851Z,38.50
2023-02-23T20:05:13.727Z,38.50
2023-02-23T20:07:41.254Z,38.50
2023-02-23T20:10:10.357Z,38.50
2023-02-23T20:12:37.448Z,38.40
2023-02-23T20:15:05.061Z,38.40
2023-02-23T20:17:32.444Z,38.40
2023-02-23T20:19:59.477Z,38.40
2023-02-23T20:22:26.659Z,38.40
2023-02-23T20:24:53.915Z,38.40
2023-02-23T20:27:22.781Z,38.40
2023-02-23T20:29:50.847Z,38.40
2023-02-23T20:32:18.136Z,38.40
2023-02-23T20:34:46.173Z,38.30
2023-02-23T20:37:13.252Z,38.40
2023-02-23T20:39:40.304Z,38.30
2023-02-23T20:42:07.419Z,38.30
2023-02-23T20:44:35.175Z,38.30
2023-02-23T20:47:02.251Z,38.30
2023-02-23T20:49:29.840Z,38.30
2023-02-23T20:51:56.971Z,38.20
2023-02-23T20:54:24.141Z,38.20
2023-02-23T20:56:59.395Z,38.10
2023-02-23T20:59:30.956Z,38.10
2023-02-23T21:01:58.138Z,38.10
2023-02-23T21:04:25.264Z,38.10
2023-02-23T21:06:52.528Z,38.10
2023-02-23T21:09:19.806Z,38.00
2023-02-23T21:11:48.263Z,38.00
2023-02-23T21:14:16.887Z,38.00
2023-02-23T21:16:47.267Z,38.00
2023-02-23T21:19:14.774Z,38.00
2023-02-23T21:21:44.593Z,38.00
2023-02-23T21:24:13.083Z,38.00
2023-02-23T21:26:40.155Z,38.00
2023-02-23T21:29:15.080Z,38.00
2023-02-23T21:31:44.120Z,38.00
2023-02-23T21:34:11.617Z,38.00
2023-02-23T21:36:39.221Z,38.00
2023-02-23T21:39:06.834Z,38.00
2023-02-23T21:41:34.281Z,38.00
2023-02-23T21:44:03.766Z,38.00
2023-02-23T21:46:30.995Z,38.00
2023-02-23T21:48:58.478Z,38.00
2023-02-23T21:51:26.016Z,38.00
2023-02-23T21:53:55.865Z,38.00
2023-02-23T21:56:23.712Z,38.00
2023-02-23T21:58:53.506Z,38.00
2023-02-23T22:01:24.479Z,38.00
2023-02-23T22:03:54.901Z,38.00
2023-02-23T22:06:26.531Z,38.00
2023-02-23T22:08:54.211Z,37.90
2023-02-23T22:11:24.930Z,38.00
2023-02-23T22:14:01.176Z,37.90
2023-02-23T22:16:31.457Z,38.00
2023-02-23T22:18:58.860Z,37.90
2023-02-23T22:21:26.010Z,37.90
2023-02-23T22:23:54.319Z,37.90
2023-02-23T22:26:21.436Z,37.80
2023-02-23T22:28:48.529Z,37.90
2023-02-23T22:31:16.032Z,37.80
2023-02-23T22:33:44.501Z,37.80
2023-02-23T22:36:13.442Z,37.80
2023-02-23T22:38:42.101Z,37.80
2023-02-23T22:41:10.387Z,37.70
2023-02-23T22:43:39.291Z,37.80
2023-02-23T22:46:07.721Z,37.80
2023-02-23T22:48:35.787Z,37.80
2023-02-23T22:51:03.316Z,37.70
2023-02-23T22:53:30.560Z,37.70
2023-02-23T22:55:57.974Z,37.70
2023-02-23T22:58:26.679Z,37.70
2023-02-23T23:01:04.970Z,37.70
2023-02-23T23:03:35.948Z,37.70
2023-02-23T23:06:06.285Z,37.80
2023-02-23T23:08:37.047Z,37.70
2023-02-23T23:11:11.142Z,37.70
2023-02-23T23:13:44.945Z,37.70
2023-02-23T23:16:25.532Z,37.80
2023-02-23T23:19:02.809Z,37.70
2023-02-23T23:21:32.478Z,37.70
2023-02-23T23:24:02.182Z,37.80
2023-02-23T23:26:29.901Z,37.70
2023-02-23T23:28:59.443Z,37.70
2023-02-23T23:31:32.273Z,37.70
2023-02-23T23:34:02.206Z,37.70
2023-02-23T23:36:32.510Z,37.70
2023-02-23T23:38:59.690Z,37.60
2023-02-23T23:41:28.744Z,37.60
2023-02-23T23:43:59.460Z,37.60
2023-02-23T23:46:29.778Z,37.60
2023-02-23T23:49:02.603Z,37.60
2023-02-23T23:51:32.871Z,37.50
2023-02-23T23:54:01.852Z,38.10
2023-02-23T23:56:30.714Z,37.50
2023-02-23T23:58:58.548Z,37.50
